Time;durP1;ratioP1;P1;durP2;ratioP2;P2;SDS_P1;SDS_P2;PMS_P1;PMS_P2;Temp;Humidity;BMP_temperature;BMP_pressure;BME280_temperature;BME280_humidity;BME280_pressure;Samples;Min_cycle;Max_cycle;Signal;HPM_P1;HPM_P2
2021/12/07 00:00:33;;;;;;;;;;;;;;;6.02;71.49;98676.66;5051835;28;19932;-59
2021/12/07 00:03:00;;;;;;;;;;;;;;;6.04;71.74;98668.78;5051871;28;20014;-59
2021/12/07 00:05:27;;;;;;;;;;;;;;;6.04;71.61;98674.88;5051814;28;19939;-59
2021/12/07 00:07:53;;;;;;;;;;;;;;;6.06;71.78;98674.78;5051837;28;19928;-59
2021/12/07 00:10:20;;;;;;;;;;;;;;;6.06;71.59;98674.78;5051652;28;19921;-59
2021/12/07 00:12:47;;;;;;;;;;;;;;;6.06;71.59;98670.38;5050579;28;20323;-60
2021/12/07 00:15:17;;;;;;;;;;;;;;;6.08;71.54;98679.00;5051746;28;19931;-60
2021/12/07 00:17:48;;;;;;;;;;;;;;;6.10;71.70;98673.69;5051729;28;19928;-59
2021/12/07 00:20:16;;;;;;;;;;;;;;;6.10;71.71;98674.50;5051323;28;19920;-59
2021/12/07 00:22:44;;;;;;;;;;;;;;;6.11;71.72;98668.38;5051440;28;19932;-59
2021/12/07 00:25:11;;;;;;;;;;;;;;;6.12;71.56;98661.38;5050975;28;19944;-60
2021/12/07 00:27:38;;;;;;;;;;;;;;;6.12;71.64;98669.19;5050160;28;19925;-61
2021/12/07 00:30:06;;;;;;;;;;;;;;;6.12;71.25;98667.44;5050064;28;19924;-60
2021/12/07 00:32:38;;;;;;;;;;;;;;;6.12;71.45;98662.22;5051334;28;19920;-62
2021/12/07 00:37:40;;;;;;;;;;;;;;;6.12;71.71;98667.44;5051385;28;19920;-59
2021/12/07 00:40:07;;;;;;;;;;;;;;;6.13;71.67;98669.13;5051418;28;20139;-59
2021/12/07 00:42:34;;;;;;;;;;;;;;;6.13;71.67;98673.50;5050067;28;19928;-59
2021/12/07 00:45:01;;;;;;;;;;;;;;;6.15;71.46;98673.41;5051160;28;19925;-59
2021/12/07 00:47:27;;;;;;;;;;;;;;;6.13;71.58;98679.56;5050913;28;20003;-60
2021/12/07 00:49:54;;;;;;;;;;;;;;;6.14;71.71;98667.34;5051132;28;20015;-60
2021/12/07 00:52:21;;;;;;;;;;;;;;;6.13;71.27;98674.34;5051086;28;19924;-60
2021/12/07 00:54:47;;;;;;;;;;;;;;;6.12;71.35;98672.66;5051171;28;20297;-61
2021/12/07 00:57:14;;;;;;;;;;;;;;;6.11;70.44;98671.00;5050769;28;19928;-60
2021/12/07 00:59:40;;;;;;;;;;;;;;;6.08;69.77;98676.38;5050859;28;19921;-59
2021/12/07 01:02:07;;;;;;;;;;;;;;;6.04;70.02;98680.09;5051041;28;19925;-59
2021/12/07 01:04:34;;;;;;;;;;;;;;;5.99;70.20;98674.25;5050747;28;19935;-61
2021/12/07 01:07:06;;;;;;;;;;;;;;;5.94;70.24;98679.72;5051076;28;19924;-58
2021/12/07 01:24:39;;;;;;;;;;;;;;;5.90;70.33;98682.59;5050654;28;19944;-58
2021/12/07 01:26:14;;;;;;;;;;;;;;;5.56;70.62;98688.72;5050826;28;20340;-61
2021/12/07 01:28:44;;;;;;;;;;;;;;;5.53;70.56;98691.47;5050746;28;19924;-61
2021/12/07 01:31:21;;;;;;;;;;;;;;;5.49;71.00;98687.34;5050220;28;19921;-60
2021/12/07 01:34:11;;;;;;;;;;;;;;;5.45;70.70;98694.50;5050963;28;19967;-59
2021/12/07 01:44:47;;;;;;;;;;;;;;;5.29;70.98;98710.13;5054394;28;19928;-62
2021/12/07 02:00:32;;;;;;;;;;;;;;;5.13;71.19;98719.69;5054095;28;20279;-60
2021/12/07 02:02:58;;;;;;;;;;;;;;;5.11;71.41;98717.16;5053022;28;19950;-59
2021/12/07 02:05:25;;;;;;;;;;;;;;;5.10;71.19;98725.91;5054434;28;19929;-59
2021/12/07 02:07:52;;;;;;;;;;;;;;;5.07;70.73;98724.28;5054167;28;19920;-60
2021/12/07 02:10:23;;;;;;;;;;;;;;;5.04;70.71;98723.59;5053944;28;20364;-59
2021/12/07 02:12:51;;;;;;;;;;;;;;;4.99;70.80;98718.63;5053763;28;19925;-62
2021/12/07 02:15:19;;;;;;;;;;;;;;;4.94;70.65;98728.44;5053037;28;20335;-62
2021/12/07 02:17:47;;;;;;;;;;;;;;;4.89;70.92;98725.19;5053998;28;20312;-61
2021/12/07 02:20:14;;;;;;;;;;;;;;;4.86;71.21;98728.81;5052329;28;19921;-62
2021/12/07 02:22:40;;;;;;;;;;;;;;;4.83;70.93;98726.38;5053766;28;19927;-59
2021/12/07 02:25:08;;;;;;;;;;;;;;;4.81;71.16;98726.44;5053787;28;19947;-59
2021/12/07 02:27:36;;;;;;;;;;;;;;;4.80;71.28;98727.38;5053625;28;19928;-62
2021/12/07 02:30:03;;;;;;;;;;;;;;;4.79;71.29;98732.66;5053626;28;19921;-59
2021/12/07 02:32:30;;;;;;;;;;;;;;;4.78;71.63;98730.94;5053791;28;19920;-60
2021/12/07 02:35:00;;;;;;;;;;;;;;;4.78;71.53;98729.19;5053684;28;19931;-60
2021/12/07 02:37:30;;;;;;;;;;;;;;;4.77;71.55;98727.53;5052210;28;19925;-60
2021/12/07 02:39:58;;;;;;;;;;;;;;;4.76;71.54;98725.84;5051866;28;20381;-60
2021/12/07 02:42:25;;;;;;;;;;;;;;;4.74;71.36;98726.84;5053593;28;19929;-61
2021/12/07 02:44:52;;;;;;;;;;;;;;;4.73;71.53;98728.59;5053279;28;20396;-61
2021/12/07 02:47:19;;;;;;;;;;;;;;;4.72;71.61;98742.56;5052647;28;19925;-61
2021/12/07 02:49:45;;;;;;;;;;;;;;;4.71;71.14;98737.41;5053102;28;20284;-60
2021/12/07 02:52:12;;;;;;;;;;;;;;;4.68;71.27;98749.66;5053219;28;19927;-63
2021/12/07 02:54:44;;;;;;;;;;;;;;;4.67;71.23;98744.53;5053010;28;19921;-61
2021/12/07 02:57:15;;;;;;;;;;;;;;;4.65;71.37;98747.22;5052204;28;19931;-62
2021/12/07 02:59:48;;;;;;;;;;;;;;;4.61;71.33;98753.50;5053058;28;19921;-61
2021/12/07 03:02:17;;;;;;;;;;;;;;;4.57;70.81;98750.19;5051862;28;19924;-59
2021/12/07 03:04:57;;;;;;;;;;;;;;;4.54;71.08;98750.34;5052832;28;19924;-61
2021/12/07 03:26:21;;;;;;;;;;;;;;;4.32;71.06;98760.94;5052646;28;19932;-59
2021/12/07 03:28:48;;;;;;;;;;;;;;;4.32;71.48;98760.09;5052653;28;19928;-62
2021/12/07 03:31:16;;;;;;;;;;;;;;;4.29;71.64;98769.75;5052250;28;19925;-62
2021/12/07 03:33:43;;;;;;;;;;;;;;;4.28;71.87;98770.69;5052290;28;19982;-63
2021/12/07 03:36:10;;;;;;;;;;;;;;;4.28;71.64;98785.47;5052284;28;19928;-61
2021/12/07 03:38:38;;;;;;;;;;;;;;;4.27;72.09;98779.38;5052171;28;19955;-61
2021/12/07 03:41:05;;;;;;;;;;;;;;;4.27;72.19;98787.22;5050828;28;19971;-59
2021/12/07 03:43:32;;;;;;;;;;;;;;;4.29;72.34;98792.34;5051216;28;19935;-62
2021/12/07 03:46:00;;;;;;;;;;;;;;;4.30;72.13;98794.06;5052215;28;19925;-62
2021/12/07 03:48:26;;;;;;;;;;;;;;;4.30;72.24;98794.88;5052229;28;19920;-62
2021/12/07 03:50:53;;;;;;;;;;;;;;;4.30;72.12;98801.88;5051756;28;20026;-62
2021/12/07 03:53:19;;;;;;;;;;;;;;;4.29;72.09;98798.41;5052386;28;19924;-62
2021/12/07 03:55:46;;;;;;;;;;;;;;;4.28;72.03;98803.69;5051929;28;19933;-61
2021/12/07 03:58:13;;;;;;;;;;;;;;;4.27;71.87;98808.03;5051397;28;19921;-61
2021/12/07 04:00:43;;;;;;;;;;;;;;;4.25;71.86;98804.69;5051477;28;19924;-61
2021/12/07 04:03:12;;;;;;;;;;;;;;;4.25;71.91;98806.44;5050591;28;19925;-62
2021/12/07 04:05:45;;;;;;;;;;;;;;;4.23;71.93;98809.09;5050679;28;19920;-61
2021/12/07 04:08:16;;;;;;;;;;;;;;;4.21;71.79;98812.69;5050700;28;19924;-60
2021/12/07 04:10:43;;;;;;;;;;;;;;;4.20;71.91;98811.00;5051511;28;19928;-61
2021/12/07 04:13:09;;;;;;;;;;;;;;;4.17;71.99;98810.25;5051776;28;20345;-61
2021/12/07 04:15:36;;;;;;;;;;;;;;;4.17;72.06;98810.25;5051702;28;19943;-61
2021/12/07 04:18:02;;;;;;;;;;;;;;;4.18;72.54;98816.28;5051440;28;19928;-62
2021/12/07 04:20:29;;;;;;;;;;;;;;;4.17;72.16;98812.88;5051519;28;19925;-62
2021/12/07 04:22:55;;;;;;;;;;;;;;;4.18;72.04;98821.50;5051656;28;19929;-61
2021/12/07 04:25:23;;;;;;;;;;;;;;;4.17;72.24;98822.41;5051454;28;19920;-62
2021/12/07 04:27:51;;;;;;;;;;;;;;;4.15;72.06;98824.28;5051546;28;19927;-65
2021/12/07 04:30:20;;;;;;;;;;;;;;;4.15;72.23;98834.69;5049985;28;19932;-60
2021/12/07 04:32:46;;;;;;;;;;;;;;;4.14;71.90;98828.63;5049997;28;19929;-61
2021/12/07 04:35:13;;;;;;;;;;;;;;;4.14;72.17;98832.97;5051162;28;19920;-61
2021/12/07 04:37:40;;;;;;;;;;;;;;;4.12;71.59;98835.63;5051571;28;19920;-61
2021/12/07 04:40:08;;;;;;;;;;;;;;;4.12;71.82;98838.25;5051045;28;19932;-63
2021/12/07 04:42:34;;;;;;;;;;;;;;;4.12;72.28;98834.81;5051351;28;19928;-62
2021/12/07 04:45:05;;;;;;;;;;;;;;;4.12;72.42;98832.22;5050798;28;20392;-61
2021/12/07 04:58:16;;;;;;;;;;;;;;;4.20;72.66;98860.50;5051102;28;19925;-60
2021/12/07 05:00:42;;;;;;;;;;;;;;;4.22;72.84;98853.47;5050612;28;19925;-61
2021/12/07 05:03:12;;;;;;;;;;;;;;;4.24;72.75;98857.72;5050917;28;19921;-62
2021/12/07 05:05:45;;;;;;;;;;;;;;;4.25;72.68;98856.78;5050915;28;19927;-62
2021/12/07 05:08:15;;;;;;;;;;;;;;;4.27;72.59;98854.13;5050995;28;20430;-61
2021/12/07 05:13:27;;;;;;;;;;;;;;;4.32;73.19;98861.69;5050501;28;20296;-62
2021/12/07 05:23:55;;;;;;;;;;;;;;;4.46;73.10;98864.53;5051050;28;19927;-63
2021/12/07 05:39:56;;;;;;;;;;;;;;;4.47;72.82;98894.03;5050281;28;19932;-63
2021/12/07 05:42:23;;;;;;;;;;;;;;;4.47;72.74;98889.69;5050005;28;19925;-61
2021/12/07 05:44:50;;;;;;;;;;;;;;;4.49;72.73;98890.44;5049105;28;19971;-61
2021/12/07 05:47:17;;;;;;;;;;;;;;;4.49;72.79;98898.25;5050332;28;19921;-61
2021/12/07 05:49:44;;;;;;;;;;;;;;;4.48;72.37;98901.78;5050111;28;19932;-63
2021/12/07 05:52:10;;;;;;;;;;;;;;;4.48;72.46;98898.34;5050402;28;19931;-61
2021/12/07 05:54:37;;;;;;;;;;;;;;;4.48;72.55;98907.00;5050858;28;20266;-60
2021/12/07 05:57:04;;;;;;;;;;;;;;;4.46;72.43;98914.06;5049971;28;20419;-60
2021/12/07 05:59:31;;;;;;;;;;;;;;;4.46;72.17;98916.66;5049059;28;19924;-61
2021/12/07 06:01:58;;;;;;;;;;;;;;;4.48;72.70;98919.19;5050261;28;19924;-60
2021/12/07 06:04:25;;;;;;;;;;;;;;;4.47;72.49;98920.09;5050482;28;20384;-60
2021/12/07 06:06:51;;;;;;;;;;;;;;;4.47;72.43;98923.56;5050498;28;19928;-60
2021/12/07 06:09:18;;;;;;;;;;;;;;;4.48;72.58;98927.84;5050031;28;19928;-60
2021/12/07 06:11:47;;;;;;;;;;;;;;;4.50;72.94;98948.63;5050210;28;19920;-62
2021/12/07 06:14:18;;;;;;;;;;;;;;;4.50;72.63;98949.47;5050268;28;19921;-61
2021/12/07 06:16:45;;;;;;;;;;;;;;;4.51;72.76;98948.56;5050031;28;19925;-61
2021/12/07 06:19:12;;;;;;;;;;;;;;;4.53;72.58;98957.16;5049324;28;19924;-60
2021/12/07 06:21:39;;;;;;;;;;;;;;;4.54;72.69;98958.84;5050571;28;20471;-63
2021/12/07 06:24:05;;;;;;;;;;;;;;;4.54;72.40;98963.22;5053661;28;19925;-60
2021/12/07 06:26:35;;;;;;;;;;;;;;;4.54;72.64;98969.28;5053925;28;20300;-60
2021/12/07 06:29:02;;;;;;;;;;;;;;;4.54;72.44;98973.63;5053828;28;19936;-61
2021/12/07 06:31:28;;;;;;;;;;;;;;;4.53;72.44;98975.38;5053543;28;19921;-61
2021/12/07 06:33:55;;;;;;;;;;;;;;;4.53;72.66;98978.00;5053653;28;20388;-61
2021/12/07 06:36:24;;;;;;;;;;;;;;;4.54;72.64;98979.72;5053910;28;19978;-60
2021/12/07 06:38:50;;;;;;;;;;;;;;;4.51;72.46;98979.84;5053521;28;19921;-62
2021/12/07 06:41:17;;;;;;;;;;;;;;;4.52;72.46;98989.34;5053131;28;19944;-62
2021/12/07 06:43:44;;;;;;;;;;;;;;;4.50;72.56;98980.75;5053348;28;19928;-61
2021/12/07 06:46:10;;;;;;;;;;;;;;;4.50;72.61;98988.56;5053883;28;19921;-61
2021/12/07 06:48:37;;;;;;;;;;;;;;;4.51;72.68;98990.25;5053436;28;19920;-61
2021/12/07 06:51:04;;;;;;;;;;;;;;;4.53;72.94;98987.59;5051925;28;19928;-60
2021/12/07 06:53:35;;;;;;;;;;;;;;;4.54;72.89;98997.09;5053323;28;19921;-60
2021/12/07 06:56:04;;;;;;;;;;;;;;;4.55;72.78;99004.84;5053257;28;20377;-60
2021/12/07 06:58:30;;;;;;;;;;;;;;;4.55;72.41;99014.41;5052768;28;19924;-60
2021/12/07 07:00:57;;;;;;;;;;;;;;;4.55;72.48;99007.47;5053251;28;19921;-61
2021/12/07 07:03:23;;;;;;;;;;;;;;;4.55;72.34;99006.59;5053140;28;19921;-62
2021/12/07 07:05:50;;;;;;;;;;;;;;;4.53;72.16;99004.06;5052968;28;19921;-61
2021/12/07 07:08:17;;;;;;;;;;;;;;;4.52;72.34;98998.94;5052844;28;19924;-60
2021/12/07 07:10:43;;;;;;;;;;;;;;;4.53;72.60;99014.47;5052686;28;20385;-62
2021/12/07 07:13:12;;;;;;;;;;;;;;;4.53;72.69;99009.28;5052908;28;20007;-61
2021/12/07 07:15:39;;;;;;;;;;;;;;;4.54;72.89;99018.81;5051766;28;19924;-61
2021/12/07 07:18:05;;;;;;;;;;;;;;;4.55;72.77;99033.53;5052918;28;19924;-61
2021/12/07 07:20:32;;;;;;;;;;;;;;;4.56;72.79;99030.00;5052644;28;19921;-63
2021/12/07 07:22:58;;;;;;;;;;;;;;;4.57;72.67;99038.69;5052509;28;19925;-62
2021/12/07 07:25:25;;;;;;;;;;;;;;;4.56;72.60;99032.59;5052643;28;19928;-60
2021/12/07 07:27:51;;;;;;;;;;;;;;;4.56;72.73;99035.22;5052589;28;19920;-62
2021/12/07 07:30:19;;;;;;;;;;;;;;;4.56;72.82;99027.38;5052294;28;19928;-64
2021/12/07 07:32:46;;;;;;;;;;;;;;;4.57;72.96;99030.84;5051062;28;20327;-60
2021/12/07 07:35:14;;;;;;;;;;;;;;;4.55;72.48;99038.75;5052317;28;19943;-60
2021/12/07 07:37:40;;;;;;;;;;;;;;;4.54;72.53;99031.84;5052304;28;20372;-62
2021/12/07 07:40:09;;;;;;;;;;;;;;;4.57;73.04;99041.28;5052080;28;19947;-61
2021/12/07 07:42:38;;;;;;;;;;;;;;;4.59;72.87;99036.00;5052355;28;19937;-62
2021/12/07 07:45:05;;;;;;;;;;;;;;;4.59;73.08;99039.44;5051123;28;19920;-62
2021/12/07 07:47:32;;;;;;;;;;;;;;;4.60;72.97;99045.50;5052451;28;19932;-60
2021/12/07 07:49:58;;;;;;;;;;;;;;;4.59;72.80;99054.25;5052102;28;20397;-60
2021/12/07 07:52:25;;;;;;;;;;;;;;;4.58;72.70;99058.59;5052084;28;19951;-62
2021/12/07 07:54:51;;;;;;;;;;;;;;;4.58;72.62;99071.63;5052228;28;19927;-60
2021/12/07 07:57:18;;;;;;;;;;;;;;;4.57;72.62;99068.19;5051912;28;19921;-62
2021/12/07 07:59:44;;;;;;;;;;;;;;;4.58;72.75;99076.84;5051713;28;19928;-63
2021/12/07 08:02:11;;;;;;;;;;;;;;;4.57;72.75;99076.00;5051992;28;20009;-61
2021/12/07 08:04:38;;;;;;;;;;;;;;;4.58;72.53;99084.66;5052065;28;19944;-60
2021/12/07 08:07:05;;;;;;;;;;;;;;;4.59;72.79;99083.75;5051771;28;20407;-61
2021/12/07 08:09:31;;;;;;;;;;;;;;;4.60;72.60;99087.22;5051645;28;19957;-60
2021/12/07 08:11:58;;;;;;;;;;;;;;;4.61;72.70;99087.16;5051734;28;19920;-62
2021/12/07 08:14:25;;;;;;;;;;;;;;;4.64;72.84;99104.41;5051904;28;19925;-60
2021/12/07 08:16:51;;;;;;;;;;;;;;;4.66;72.89;99102.59;5051875;28;19921;-63
2021/12/07 08:19:18;;;;;;;;;;;;;;;4.68;73.36;99098.16;5051396;28;19924;-60
2021/12/07 08:21:44;;;;;;;;;;;;;;;4.71;72.80;99086.75;5051400;28;20417;-61
2021/12/07 08:24:11;;;;;;;;;;;;;;;4.72;72.84;99078.88;5051983;28;19925;-61
2021/12/07 08:26:37;;;;;;;;;;;;;;;4.74;73.06;99071.81;5051526;28;20355;-61
2021/12/07 08:29:04;;;;;;;;;;;;;;;4.79;73.37;99074.22;5051574;28;19929;-61
2021/12/07 08:31:31;;;;;;;;;;;;;;;4.81;72.98;99073.25;5051330;28;19921;-61
2021/12/07 08:33:57;;;;;;;;;;;;;;;4.83;72.81;99073.19;5051367;28;20419;-62
2021/12/07 08:36:24;;;;;;;;;;;;;;;4.82;72.63;99077.53;5051212;28;19920;-60
2021/12/07 08:38:50;;;;;;;;;;;;;;;4.82;72.66;99072.31;5051434;28;19920;-61
2021/12/07 08:41:17;;;;;;;;;;;;;;;4.83;72.57;99084.44;5051125;28;20335;-61
2021/12/07 08:43:48;;;;;;;;;;;;;;;4.86;73.11;99067.81;5051680;28;19947;-60
2021/12/07 08:46:15;;;;;;;;;;;;;;;4.87;72.96;99072.13;5050379;28;19921;-61
2021/12/07 08:48:42;;;;;;;;;;;;;;;4.90;73.29;99071.97;5051006;28;19928;-61
2021/12/07 08:51:10;;;;;;;;;;;;;;;4.93;73.20;99073.59;5050882;28;20396;-61
2021/12/07 08:53:43;;;;;;;;;;;;;;;4.97;73.50;99074.31;5051390;28;19991;-62
2021/12/07 09:01:45;;;;;;;;;;;;;;;5.03;72.91;99077.50;5051146;28;19928;-61
2021/12/07 09:04:17;;;;;;;;;;;;;;;5.06;73.16;99093.03;5051220;28;20015;-62
2021/12/07 09:06:44;;;;;;;;;;;;;;;5.09;73.18;99089.44;5051080;28;20023;-61
2021/12/07 09:09:11;;;;;;;;;;;;;;;5.13;73.13;99084.91;5050864;28;20303;-61
2021/12/07 09:11:37;;;;;;;;;;;;;;;5.15;73.00;99089.13;5050809;28;19921;-62
2021/12/07 09:14:04;;;;;;;;;;;;;;;5.19;73.27;99085.47;5051108;28;19925;-61
2021/12/07 09:16:31;;;;;;;;;;;;;;;5.21;72.95;99081.00;5050735;28;19924;-60
2021/12/07 09:18:58;;;;;;;;;;;;;;;5.25;73.06;99071.31;5050876;28;20061;-61
2021/12/07 09:21:24;;;;;;;;;;;;;;;5.28;72.92;99065.09;5050647;28;19927;-61
2021/12/07 09:23:51;;;;;;;;;;;;;;;5.31;72.98;99063.19;5050840;28;20357;-61
2021/12/07 09:26:17;;;;;;;;;;;;;;;5.34;72.90;99059.56;5050652;28;19932;-60
2021/12/07 09:28:45;;;;;;;;;;;;;;;5.35;72.58;99059.50;5050712;28;20357;-61
2021/12/07 09:31:12;;;;;;;;;;;;;;;5.37;72.40;99062.06;5050711;28;19921;-61
2021/12/07 09:33:41;;;;;;;;;;;;;;;5.38;72.24;99062.91;5051006;28;19939;-63
2021/12/07 09:36:08;;;;;;;;;;;;;;;5.35;71.98;99059.50;5050805;28;19921;-60
2021/12/07 09:38:35;;;;;;;;;;;;;;;5.35;72.29;99058.69;5050613;28;20400;-60
2021/12/07 09:41:03;;;;;;;;;;;;;;;5.33;72.03;99070.94;5048900;28;19925;-62
2021/12/07 09:43:30;;;;;;;;;;;;;;;5.33;72.61;99070.94;5050546;28;20384;-60
2021/12/07 09:45:58;;;;;;;;;;;;;;;5.32;72.53;99070.13;5050710;28;20308;-60
2021/12/07 09:48:25;;;;;;;;;;;;;;;5.34;72.37;99077.84;5050690;28;19966;-62
2021/12/07 09:50:53;;;;;;;;;;;;;;;5.36;72.45;99068.19;5048933;28;19924;-63
2021/12/07 09:53:22;;;;;;;;;;;;;;;5.37;72.53;99076.84;5049122;28;20335;-60
2021/12/07 09:55:48;;;;;;;;;;;;;;;5.39;73.01;99080.25;5051595;28;19974;-60
2021/12/07 09:58:16;;;;;;;;;;;;;;;5.42;72.89;99091.38;5054508;28;19927;-61
2021/12/07 10:00:44;;;;;;;;;;;;;;;5.45;73.07;99103.44;5054332;28;19924;-61
2021/12/07 10:03:11;;;;;;;;;;;;;;;5.48;72.61;99113.75;5054105;28;19920;-60
2021/12/07 10:05:40;;;;;;;;;;;;;;;5.49;72.30;99123.28;5054025;28;20028;-62
2021/12/07 10:08:08;;;;;;;;;;;;;;;5.48;72.32;99121.59;5054038;28;19925;-63
2021/12/07 10:10:38;;;;;;;;;;;;;;;5.49;72.21;99118.06;5054413;28;19963;-61
2021/12/07 10:13:06;;;;;;;;;;;;;;;5.50;72.24;99114.53;5054275;28;19954;-61
2021/12/07 10:15:33;;;;;;;;;;;;;;;5.51;72.44;99111.00;5053949;28;20015;-60
2021/12/07 10:18:06;;;;;;;;;;;;;;;5.52;72.36;99112.69;5054010;28;20435;-61
2021/12/07 10:20:45;;;;;;;;;;;;;;;5.54;72.14;99094.34;5054100;28;19964;-59
2021/12/07 10:23:15;;;;;;;;;;;;;;;5.58;72.90;99090.69;5053863;28;19924;-62
2021/12/07 10:25:44;;;;;;;;;;;;;;;5.63;72.93;99096.53;5053815;28;19924;-60
2021/12/07 10:28:29;;;;;;;;;;;;;;;5.67;72.88;99103.28;5053832;28;19929;-61
2021/12/07 10:31:21;;;;;;;;;;;;;;;5.71;72.69;99101.38;5053746;28;20289;-59
2021/12/07 10:33:48;;;;;;;;;;;;;;;5.75;72.44;99100.31;5054325;28;19925;-58
2021/12/07 10:36:17;;;;;;;;;;;;;;;5.79;72.69;99107.09;5053851;28;19936;-60
2021/12/07 10:38:54;;;;;;;;;;;;;;;5.83;73.00;99111.25;5053512;28;19928;-60
2021/12/07 10:41:23;;;;;;;;;;;;;;;5.87;72.81;99122.41;5053689;28;19932;-59
2021/12/07 10:43:59;;;;;;;;;;;;;;;5.90;73.02;99124.03;5053746;28;19928;-60
2021/12/07 10:46:31;;;;;;;;;;;;;;;5.92;72.98;99135.22;5053523;28;19921;-59
2021/12/07 10:49:16;;;;;;;;;;;;;;;5.95;73.08;99122.84;5052070;28;19951;-61
2021/12/07 10:52:01;;;;;;;;;;;;;;;5.98;73.26;99114.06;5053228;28;20324;-60
2021/12/07 10:54:29;;;;;;;;;;;;;;;6.02;73.27;99110.34;5053483;28;19931;-59
2021/12/07 10:56:57;;;;;;;;;;;;;;;6.04;72.87;99105.09;5053641;28;19975;-60
2021/12/07 10:59:24;;;;;;;;;;;;;;;6.06;73.20;99111.91;5051665;28;19921;-59
2021/12/07 11:01:53;;;;;;;;;;;;;;;6.09;73.06;99106.56;5053171;28;20668;-59
2021/12/07 11:04:22;;;;;;;;;;;;;;;6.12;73.32;99101.19;5051691;28;19924;-60
2021/12/07 11:07:10;;;;;;;;;;;;;;;6.16;73.35;99095.81;5053065;28;19925;-59
2021/12/07 11:09:39;;;;;;;;;;;;;;;6.21;73.12;99107.72;5052652;28;20376;-60
2021/12/07 11:12:10;;;;;;;;;;;;;;;6.23;72.92;99113.72;5052916;28;19924;-60
2021/12/07 11:14:39;;;;;;;;;;;;;;;6.25;72.73;99113.66;5052803;28;19921;-59
2021/12/07 11:17:07;;;;;;;;;;;;;;;6.28;72.80;99110.03;5053159;28;19926;-60
2021/12/07 11:19:35;;;;;;;;;;;;;;;6.27;71.85;99111.78;5052496;28;19921;-60
2021/12/07 11:22:02;;;;;;;;;;;;;;;6.28;72.30;99110.03;5051425;28;19928;-61
2021/12/07 11:24:40;;;;;;;;;;;;;;;6.29;72.78;99107.34;5051443;28;19992;-59
2021/12/07 11:29:56;;;;;;;;;;;;;;;6.34;73.10;99112.34;5052534;28;20276;-59
2021/12/07 11:32:23;;;;;;;;;;;;;;;6.35;73.05;99107.03;5052607;28;19928;-59
2021/12/07 11:34:50;;;;;;;;;;;;;;;6.39;73.06;99105.97;5052526;28;19928;-60
2021/12/07 11:37:16;;;;;;;;;;;;;;;6.43;72.99;99109.25;5051267;28;20319;-60
2021/12/07 11:39:49;;;;;;;;;;;;;;;6.47;72.72;99109.97;5052024;28;20328;-59
2021/12/07 11:42:18;;;;;;;;;;;;;;;6.50;72.72;99109.78;5051380;28;19935;-60
2021/12/07 11:44:54;;;;;;;;;;;;;;;6.51;72.66;99099.25;5052424;28;19926;-58
2021/12/07 11:47:29;;;;;;;;;;;;;;;6.55;72.32;99097.34;5052321;28;19940;-61
2021/12/07 11:49:58;;;;;;;;;;;;;;;6.59;72.77;99092.81;5052136;28;19927;-59
2021/12/07 11:52:24;;;;;;;;;;;;;;;6.59;72.28;99092.81;5052474;28;20285;-59
2021/12/07 11:54:51;;;;;;;;;;;;;;;6.61;72.30;99097.03;5052213;28;19925;-60
2021/12/07 11:57:19;;;;;;;;;;;;;;;6.62;72.11;99096.09;5052142;28;19928;-59
2021/12/07 11:59:47;;;;;;;;;;;;;;;6.64;72.25;99103.88;5051677;28;20011;-60
2021/12/07 12:02:15;;;;;;;;;;;;;;;6.63;71.65;99094.34;5050858;28;19925;-62
2021/12/07 12:04:42;;;;;;;;;;;;;;;6.63;72.04;99094.34;5051813;28;19932;-62
2021/12/07 12:07:09;;;;;;;;;;;;;;;6.64;72.52;99089.03;5050895;28;19934;-59
2021/12/07 12:09:37;;;;;;;;;;;;;;;6.66;72.60;99088.94;5051588;28;20387;-59
2021/12/07 12:12:12;;;;;;;;;;;;;;;6.68;72.63;99081.00;5051898;28;19921;-60
2021/12/07 12:14:57;;;;;;;;;;;;;;;6.70;73.07;99076.56;5051872;28;19928;-59
2021/12/07 12:17:42;;;;;;;;;;;;;;;6.72;72.96;99072.94;5052061;28;19931;-59
2021/12/07 12:20:12;;;;;;;;;;;;;;;6.77;73.24;99057.00;5050676;28;19974;-60
2021/12/07 12:22:39;;;;;;;;;;;;;;;6.81;73.28;99062.91;5051674;28;19924;-62
2021/12/07 12:25:07;;;;;;;;;;;;;;;6.81;72.21;99061.16;5051700;28;19932;-59
2021/12/07 12:27:39;;;;;;;;;;;;;;;6.85;72.52;99065.31;5051641;28;19925;-61
2021/12/07 12:30:18;;;;;;;;;;;;;;;6.85;72.44;99065.31;5051246;28;19931;-60
2021/12/07 12:32:54;;;;;;;;;;;;;;;6.87;72.34;99071.28;5051568;28;19921;-59
2021/12/07 12:35:28;;;;;;;;;;;;;;;6.87;71.96;99058.19;5051481;28;19925;-59
2021/12/07 12:37:55;;;;;;;;;;;;;;;6.87;71.89;99068.66;5051234;28;19931;-61
2021/12/07 12:40:23;;;;;;;;;;;;;;;6.86;71.98;99061.75;5051085;28;19924;-60
2021/12/07 12:42:51;;;;;;;;;;;;;;;6.85;71.20;99070.53;5051309;28;20391;-58
2021/12/07 12:45:34;;;;;;;;;;;;;;;6.84;71.33;99070.59;5051295;28;20367;-59
2021/12/07 12:48:12;;;;;;;;;;;;;;;6.80;70.77;99080.38;5049969;28;19936;-61
2021/12/07 12:50:47;;;;;;;;;;;;;;;6.81;71.40;99082.09;5050010;28;19928;-59
2021/12/07 12:53:15;;;;;;;;;;;;;;;6.78;71.05;99080.44;5051292;28;20300;-60
2021/12/07 12:55:46;;;;;;;;;;;;;;;6.79;71.74;99068.22;5051052;28;19951;-60
2021/12/07 12:58:16;;;;;;;;;;;;;;;6.78;71.80;99064.75;5049762;28;19921;-58
2021/12/07 13:01:00;;;;;;;;;;;;;;;6.78;71.98;99064.75;5050672;28;19925;-59
2021/12/07 13:03:39;;;;;;;;;;;;;;;6.78;71.90;99062.13;5049882;28;20015;-60
2021/12/07 13:06:06;;;;;;;;;;;;;;;6.78;71.25;99056.91;5050872;28;19924;-61
2021/12/07 13:08:50;;;;;;;;;;;;;;;6.80;71.95;99063.84;5051083;28;20015;-61
2021/12/07 13:11:29;;;;;;;;;;;;;;;6.78;71.75;99061.31;5050705;28;20346;-60
2021/12/07 13:13:55;;;;;;;;;;;;;;;6.80;72.04;99056.81;5050980;28;19963;-62
2021/12/07 13:16:22;;;;;;;;;;;;;;;6.82;72.06;99052.38;5050993;28;19924;-59
2021/12/07 13:18:58;;;;;;;;;;;;;;;6.83;71.60;99054.06;5050830;28;20015;-59
2021/12/07 13:21:25;;;;;;;;;;;;;;;6.83;70.72;99054.06;5050670;28;19921;-59
2021/12/07 13:24:03;;;;;;;;;;;;;;;6.84;71.10;99055.75;5051264;28;19929;-58
2021/12/07 13:26:38;;;;;;;;;;;;;;;6.84;71.09;99053.13;5050906;28;19920;-60
2021/12/07 13:29:12;;;;;;;;;;;;;;;6.85;71.40;99049.59;5051106;28;19928;-59
2021/12/07 13:31:40;;;;;;;;;;;;;;;6.85;71.09;99046.13;5052710;28;20392;-59
2021/12/07 13:34:07;;;;;;;;;;;;;;;6.83;70.29;99045.34;5054733;28;19925;-60
2021/12/07 13:36:37;;;;;;;;;;;;;;;6.81;70.23;99042.84;5054972;28;19925;-59
2021/12/07 13:39:10;;;;;;;;;;;;;;;6.80;69.78;99041.13;5053361;28;19921;-60
2021/12/07 13:41:54;;;;;;;;;;;;;;;6.80;70.30;99037.69;5054481;28;19931;-60
2021/12/07 13:44:21;;;;;;;;;;;;;;;6.79;70.68;99034.22;5053613;28;19924;-59
2021/12/07 13:46:51;;;;;;;;;;;;;;;6.81;71.13;99019.31;5054586;28;20335;-58
2021/12/07 13:49:17;;;;;;;;;;;;;;;6.84;71.63;99021.72;5054378;28;19925;-60
2021/12/07 13:51:45;;;;;;;;;;;;;;;6.88;71.88;99014.59;5086727;28;20361;-59
2021/12/07 13:54:16;;;;;;;;;;;;;;;6.91;71.34;99012.63;5054545;28;19921;-60
2021/12/07 13:56:43;;;;;;;;;;;;;;;6.95;71.64;99005.47;5054376;28;20015;-60
2021/12/07 13:59:11;;;;;;;;;;;;;;;6.97;71.01;99008.00;5052784;28;19924;-59
2021/12/07 14:01:39;;;;;;;;;;;;;;;6.96;70.35;98998.47;5054566;28;19925;-59
2021/12/07 14:04:07;;;;;;;;;;;;;;;6.97;71.18;99008.00;5054432;28;20034;-59
2021/12/07 14:06:34;;;;;;;;;;;;;;;6.98;70.98;99002.69;5052977;28;19927;-59
2021/12/07 14:09:10;;;;;;;;;;;;;;;6.97;71.00;98997.53;5052933;28;19924;-59
2021/12/07 14:11:37;;;;;;;;;;;;;;;6.95;70.50;98988.94;5054021;28;19948;-59
2021/12/07 14:14:23;;;;;;;;;;;;;;;6.95;70.71;98992.38;5054174;28;19924;-60
2021/12/07 14:16:54;;;;;;;;;;;;;;;6.93;71.01;98989.00;5054173;28;19921;-59
2021/12/07 14:19:21;;;;;;;;;;;;;;;6.95;71.77;98984.53;5053849;28;19928;-59
2021/12/07 14:21:47;;;;;;;;;;;;;;;6.97;72.03;98979.22;5053856;28;20286;-60
2021/12/07 14:24:19;;;;;;;;;;;;;;;7.00;72.11;98976.44;5053753;28;19928;-59
2021/12/07 14:26:46;;;;;;;;;;;;;;;7.03;72.44;98971.88;5052500;28;19924;-60
2021/12/07 14:29:21;;;;;;;;;;;;;;;7.09;72.74;98954.13;5053700;28;19924;-59
2021/12/07 14:31:49;;;;;;;;;;;;;;;7.13;72.60;98963.50;5053560;28;20328;-61
2021/12/07 14:34:19;;;;;;;;;;;;;;;7.17;72.69;98952.78;5053692;28;20003;-61
2021/12/07 14:36:57;;;;;;;;;;;;;;;7.20;73.04;98941.31;5053734;28;19929;-60
2021/12/07 14:39:25;;;;;;;;;;;;;;;7.22;72.81;98942.03;5053405;28;19925;-61
2021/12/07 14:41:53;;;;;;;;;;;;;;;7.23;73.00;98938.53;5053131;28;19932;-60
2021/12/07 14:44:21;;;;;;;;;;;;;;;7.23;72.80;98935.91;5052644;28;19924;-59
2021/12/07 14:46:48;;;;;;;;;;;;;;;7.22;72.28;98936.81;5053271;28;19927;-59